Danville, IL (61832)

4:52 PM CDT on August 03, 2015 (GMT -0500)
APRSWXNET | | Change Station
CLOSE
Current Station
Personal Weather Station
Location: Tilton, IL
Elevation: 626 ft
Nearby Weather Stations

Elev 626 ft 40.11 °N, 87.64 °W | Updated 41 minutes ago

Partly Cloudy
Partly Cloudy
85 °F
Feels Like 88 °F
N
2
Wind Variable Wind from SE
Gusts 8.0 mph

Today
High -- | Low -- °F
--% Chance of Precip.
Yesterday
High -- | Low -- °F
Precip. -- in
5:50 AM 8:02 PM
Waning Gibbous, 84% visible
Pressure 29.84 in
Visibility 7.0 miles
Clouds Scattered Clouds 4400 ft
Scattered Clouds 5000 ft
Scattered Clouds 6000 ft
Heat Index 88 °F
Dew Point 68 °F
Humidity 57%
Rainfall in
Snow Depth Not available.
UV 4 out of 12
Pollen 7.00 out of 12
Air Quality Not available.
Flu Activity Not available.
METAR KDNV 032135Z AUTO 28007KT 7SM SCT044 SCT050 SCT060 28/21 A2984 RMK AO2 T02820205

More Conditions Fewer Conditions

Pressure 29.84 in
Visibility 7.0 miles
Clouds Scattered Clouds 4400 ft
Scattered Clouds 5000 ft
Scattered Clouds 6000 ft
Heat Index 88 °F
Dew Point 68 °F
Humidity 57%
Rainfall in
Snow Depth Not available.
UV 4 out of 12
Pollen 7.00 out of 12
Air Quality Not available.
Flu Activity Not available.
METAR KDNV 032135Z AUTO 28007KT 7SM SCT044 SCT050 SCT060 28/21 A2984 RMK AO2 T02820205

More Conditions Fewer Conditions

10-Day Weather Forecast

×

Almanac

Astronomy

Aug. 03, 2015 Rise Set
Actual Time
Civil Twilight
Nautical Twilight
Astronomical Twilight
Moon
Length of Visible Light
Length of Day
Tomorrow will be .
, % of the Moon is Illuminated

Today's Extremes

State Highs State Lows

Community

WunderPhotos

Upload Photos

1,843,770 photos uploaded!

WunderBlogs® & News

Nearby

Air Quality

  Air Quality AQ Index Pollutant
Not available.

Snow Depth

Station Depth Elevation

Earthquake Activity

City Distance Mag. Time & Date
Minimum magnitude displayed is 2.5.

Coastal Water Temperatures

Place Temperature

Stations

Nearby Weather Stations

Station Location Temp. Windchill Dew Point Humidity Wind Precip. Elev Updated Type